createdAt,value
2022-11-03T00:01:37.530Z,8.50
2022-11-03T00:04:10.092Z,8.50
2022-11-03T00:06:37.782Z,8.40
2022-11-03T00:09:07.529Z,8.40
2022-11-03T00:11:35.867Z,8.40
2022-11-03T00:14:03.322Z,8.50
2022-11-03T00:16:30.492Z,8.40
2022-11-03T00:18:57.433Z,8.40
2022-11-03T00:21:24.789Z,8.40
2022-11-03T00:23:51.994Z,8.40
2022-11-03T00:26:21.375Z,8.40
2022-11-03T00:28:51.230Z,8.40
2022-11-03T00:31:30.740Z,8.40
2022-11-03T00:33:59.193Z,8.50
2022-11-03T00:36:28.289Z,8.50
2022-11-03T00:38:55.886Z,8.60
2022-11-03T00:41:23.729Z,8.80
2022-11-03T00:43:51.691Z,8.60
2022-11-03T00:46:19.347Z,8.60
2022-11-03T00:48:46.312Z,8.70
2022-11-03T00:51:14.252Z,8.70
2022-11-03T00:53:45.804Z,8.80
2022-11-03T00:56:18.544Z,8.80
2022-11-03T00:58:46.388Z,8.90
2022-11-03T01:01:22.134Z,8.90
2022-11-03T01:04:10.644Z,8.90
2022-11-03T01:06:52.342Z,9.00
2022-11-03T01:09:19.191Z,9.30
2022-11-03T01:11:52.394Z,9.00
2022-11-03T01:14:19.629Z,9.10
2022-11-03T01:16:46.468Z,9.10
2022-11-03T01:19:13.386Z,9.10
2022-11-03T01:21:40.277Z,9.10
2022-11-03T01:24:07.252Z,9.30
2022-11-03T01:26:34.401Z,9.50
2022-11-03T01:29:04.509Z,9.50
2022-11-03T01:31:31.522Z,9.30
2022-11-03T01:33:58.469Z,9.30
2022-11-03T01:36:25.865Z,9.40
2022-11-03T01:38:55.500Z,9.30
2022-11-03T01:41:25.925Z,9.30
2022-11-03T01:44:08.092Z,9.60
2022-11-03T01:46:51.581Z,9.30
2022-11-03T01:49:38.857Z,9.30
2022-11-03T01:52:14.911Z,9.30
2022-11-03T01:54:43.924Z,9.30
2022-11-03T01:57:17.012Z,9.30
2022-11-03T01:59:45.740Z,9.40
2022-11-03T02:02:12.836Z,9.30
2022-11-03T02:04:41.116Z,9.30
2022-11-03T02:07:14.756Z,9.30
2022-11-03T02:09:41.586Z,9.60
2022-11-03T02:12:09.353Z,9.20
2022-11-03T02:14:43.008Z,9.20
2022-11-03T02:17:13.350Z,9.20
2022-11-03T02:19:42.968Z,9.20
2022-11-03T02:22:18.862Z,9.10
2022-11-03T02:24:57.204Z,9.10
2022-11-03T02:27:24.070Z,9.10
2022-11-03T02:29:51.044Z,9.10
2022-11-03T02:32:23.880Z,9.10
2022-11-03T02:35:11.242Z,9.10
2022-11-03T02:37:46.266Z,9.10
2022-11-03T02:40:16.924Z,9.10
2022-11-03T02:42:48.619Z,9.20
2022-11-03T02:45:19.762Z,9.20
2022-11-03T02:47:49.021Z,9.20
2022-11-03T02:50:16.102Z,9.20
2022-11-03T02:52:48.693Z,9.20
2022-11-03T02:55:33.789Z,9.20
2022-11-03T02:58:06.190Z,9.30
2022-11-03T03:00:43.379Z,9.30
2022-11-03T03:03:35.648Z,9.30
2022-11-03T03:06:22.608Z,9.30
2022-11-03T03:08:55.864Z,9.40
2022-11-03T03:11:37.769Z,9.40
2022-11-03T03:14:23.850Z,9.60
2022-11-03T03:17:00.903Z,9.40
2022-11-03T03:19:31.111Z,9.40
2022-11-03T03:22:02.722Z,9.40
2022-11-03T03:24:52.699Z,9.30
2022-11-03T03:27:23.624Z,9.60
2022-11-03T03:29:57.027Z,9.30
2022-11-03T03:32:26.499Z,9.20
2022-11-03T03:34:54.697Z,9.40
2022-11-03T03:37:25.865Z,9.20
2022-11-03T03:39:55.907Z,9.20
2022-11-03T03:42:26.260Z,9.20
2022-11-03T03:44:53.577Z,9.20
2022-11-03T03:47:29.062Z,9.20
2022-11-03T03:49:56.848Z,9.20
2022-11-03T03:52:24.620Z,9.10
2022-11-03T03:54:52.450Z,9.40
2022-11-03T03:57:21.974Z,9.10
2022-11-03T03:59:48.848Z,9.10
2022-11-03T04:02:16.307Z,9.40
2022-11-03T04:04:43.248Z,9.10
2022-11-03T04:07:28.580Z,9.30
2022-11-03T04:09:55.553Z,9.00
2022-11-03T04:12:41.447Z,9.00
2022-11-03T04:15:31.340Z,9.00
2022-11-03T04:18:16.676Z,8.90
2022-11-03T04:21:01.934Z,9.00
2022-11-03T04:23:28.775Z,8.80
2022-11-03T04:25:56.564Z,8.80
2022-11-03T04:28:25.498Z,8.80
2022-11-03T04:30:54.742Z,8.90
2022-11-03T04:33:24.714Z,8.80
2022-11-03T04:35:55.577Z,8.80
2022-11-03T04:38:24.346Z,8.80
2022-11-03T04:40:56.558Z,8.80
2022-11-03T04:43:32.215Z,8.80
2022-11-03T04:45:59.257Z,8.80
2022-11-03T04:48:28.485Z,9.20
2022-11-03T04:50:59.244Z,8.80
2022-11-03T04:53:30.416Z,8.80
2022-11-03T04:55:58.162Z,8.80
2022-11-03T04:58:33.897Z,8.90
2022-11-03T05:01:02.890Z,8.90
2022-11-03T05:03:35.223Z,9.10
2022-11-03T05:06:12.810Z,9.20
2022-11-03T05:08:39.970Z,8.90
2022-11-03T05:11:20.465Z,8.90
2022-11-03T05:13:48.153Z,8.90
2022-11-03T05:16:15.889Z,8.90
2022-11-03T05:18:46.130Z,9.10
2022-11-03T05:21:17.797Z,8.90
2022-11-03T05:23:48.327Z,8.90
2022-11-03T05:26:20.580Z,8.80
2022-11-03T05:29:04.625Z,8.80
2022-11-03T05:31:35.243Z,8.80
2022-11-03T05:34:13.014Z,8.80
2022-11-03T05:36:40.026Z,8.70
2022-11-03T05:39:35.123Z,8.70
2022-11-03T05:42:16.455Z,8.70
2022-11-03T05:44:43.372Z,8.70
2022-11-03T05:47:21.105Z,9.10
2022-11-03T05:49:50.701Z,9.10
2022-11-03T05:52:24.025Z,8.70
2022-11-03T05:54:52.298Z,9.00
2022-11-03T05:57:20.090Z,8.90
2022-11-03T05:59:49.593Z,8.70
2022-11-03T06:02:33.658Z,8.70
2022-11-03T06:05:00.653Z,8.70
2022-11-03T06:07:30.267Z,9.10
2022-11-03T06:09:58.612Z,8.80
2022-11-03T06:12:26.207Z,8.80
2022-11-03T06:14:53.752Z,8.80
2022-11-03T06:17:30.105Z,8.80
2022-11-03T06:20:00.191Z,8.80
2022-11-03T06:22:46.096Z,8.80
2022-11-03T06:26:03.252Z,8.80
2022-11-03T06:28:36.920Z,8.90
2022-11-03T06:31:23.159Z,8.90
2022-11-03T06:33:52.215Z,9.00
2022-11-03T06:36:22.557Z,9.10
2022-11-03T06:38:56.673Z,9.10
2022-11-03T06:41:26.450Z,9.10
2022-11-03T06:43:53.940Z,8.90
2022-11-03T06:46:24.055Z,9.30
2022-11-03T06:48:57.768Z,9.40
2022-11-03T06:51:27.698Z,9.90
2022-11-03T06:53:58.520Z,9.60
2022-11-03T06:56:29.149Z,9.90
2022-11-03T06:58:57.620Z,10.00
2022-11-03T07:01:33.816Z,10.10
2022-11-03T07:04:17.726Z,10.00
2022-11-03T07:06:49.112Z,10.00
2022-11-03T07:09:22.380Z,10.40
2022-11-03T07:11:52.348Z,10.30
2022-11-03T07:14:28.610Z,10.40
2022-11-03T07:17:11.988Z,10.40
2022-11-03T07:19:41.814Z,10.50
2022-11-03T07:22:29.077Z,10.80
2022-11-03T07:24:59.705Z,10.90
2022-11-03T07:27:31.177Z,10.80
2022-11-03T07:30:01.068Z,10.90
2022-11-03T07:32:33.083Z,11.20
2022-11-03T07:35:46.913Z,11.00
2022-11-03T07:38:23.419Z,11.20
2022-11-03T07:40:53.163Z,11.30
2022-11-03T07:43:25.572Z,11.40
2022-11-03T07:45:53.754Z,11.50
2022-11-03T07:48:38.789Z,11.60
2022-11-03T07:51:25.577Z,11.70
2022-11-03T07:53:57.386Z,11.80
2022-11-03T07:56:27.222Z,11.90
2022-11-03T07:59:00.721Z,11.90
2022-11-03T08:01:36.297Z,12.00
2022-11-03T08:04:10.083Z,12.10
2022-11-03T08:06:36.947Z,12.20
2022-11-03T08:09:04.353Z,12.30
2022-11-03T08:11:31.376Z,12.40
2022-11-03T08:13:58.291Z,12.50
2022-11-03T08:16:25.306Z,12.50
2022-11-03T08:18:52.379Z,12.60
2022-11-03T08:21:19.338Z,12.70
2022-11-03T08:23:47.776Z,12.80
2022-11-03T08:26:15.416Z,12.90
2022-11-03T08:28:42.837Z,13.10
2022-11-03T08:31:12.807Z,13.10
2022-11-03T08:33:40.667Z,13.20
2022-11-03T08:36:08.678Z,13.30
2022-11-03T08:38:36.070Z,13.40
2022-11-03T08:41:03.876Z,13.50
2022-11-03T08:43:30.807Z,13.50
2022-11-03T08:46:05.616Z,13.60
2022-11-03T08:48:40.168Z,13.70
2022-11-03T08:51:10.129Z,13.80
2022-11-03T08:53:38.513Z,13.90
2022-11-03T08:56:10.351Z,14.00
2022-11-03T08:58:39.634Z,14.10
2022-11-03T09:01:06.714Z,14.20
2022-11-03T09:03:33.908Z,14.30
2022-11-03T09:06:01.007Z,14.40
2022-11-03T09:11:15.052Z,14.40
2022-11-03T09:13:42.076Z,14.50
2022-11-03T09:16:09.002Z,14.50
2022-11-03T09:18:36.036Z,14.60
2022-11-03T09:21:03.010Z,14.60
2022-11-03T09:23:29.933Z,14.80
2022-11-03T09:25:56.759Z,14.70
2022-11-03T09:28:23.636Z,14.70
2022-11-03T09:30:50.613Z,14.80
2022-11-03T09:33:17.634Z,14.80
2022-11-03T09:35:45.121Z,14.80
2022-11-03T09:38:12.119Z,14.80
2022-11-03T09:40:39.178Z,14.80
2022-11-03T09:43:06.599Z,14.70
2022-11-03T09:45:34.027Z,14.70
2022-11-03T09:48:02.054Z,14.70
2022-11-03T09:50:29.209Z,14.60
2022-11-03T09:52:57.449Z,14.70
2022-11-03T09:55:27.193Z,14.70
2022-11-03T09:58:09.329Z,14.70
2022-11-03T10:00:36.340Z,14.70
2022-11-03T10:03:05.467Z,14.80
2022-11-03T10:05:33.556Z,14.80
2022-11-03T10:08:07.062Z,14.80
2022-11-03T10:10:35.688Z,14.90
2022-11-03T10:13:09.304Z,15.20
2022-11-03T10:15:36.645Z,14.90
2022-11-03T10:18:03.683Z,15.00
2022-11-03T10:20:30.811Z,15.10
2022-11-03T10:22:57.819Z,15.20
2022-11-03T10:25:39.564Z,15.20
2022-11-03T10:28:19.202Z,15.20
2022-11-03T10:31:17.575Z,15.20
2022-11-03T10:33:55.272Z,15.20
2022-11-03T10:36:23.764Z,15.40
2022-11-03T10:38:50.833Z,15.20
2022-11-03T10:41:21.698Z,15.20
2022-11-03T10:44:17.719Z,15.20
2022-11-03T10:47:07.012Z,15.20
2022-11-03T10:49:43.252Z,15.30
2022-11-03T10:52:22.830Z,15.30
2022-11-03T10:54:51.787Z,15.40
2022-11-03T10:57:19.186Z,15.50
2022-11-03T10:59:48.955Z,15.60
2022-11-03T11:02:25.421Z,15.80
2022-11-03T11:05:00.874Z,15.90
2022-11-03T11:07:41.850Z,16.10
2022-11-03T11:10:15.031Z,16.40
2022-11-03T11:13:18.183Z,16.50
2022-11-03T11:15:47.248Z,16.70
2022-11-03T11:18:34.372Z,16.80
2022-11-03T11:21:22.398Z,16.90
2022-11-03T11:23:52.412Z,17.00
2022-11-03T11:26:25.192Z,17.00
2022-11-03T11:29:11.010Z,17.00
2022-11-03T11:31:39.012Z,17.10
2022-11-03T11:34:18.488Z,17.10
2022-11-03T11:37:07.613Z,17.20
2022-11-03T11:39:35.881Z,17.20
2022-11-03T11:42:17.408Z,17.20
2022-11-03T11:44:47.269Z,17.30
2022-11-03T11:47:34.679Z,17.30
2022-11-03T11:50:07.527Z,17.40
2022-11-03T11:52:49.915Z,17.40
2022-11-03T11:55:48.350Z,17.40
2022-11-03T11:58:43.789Z,17.40
2022-11-03T12:01:19.793Z,17.40
2022-11-03T12:03:47.316Z,17.40
2022-11-03T12:06:14.302Z,17.40
2022-11-03T12:08:42.711Z,17.40
2022-11-03T12:11:12.389Z,17.30
2022-11-03T12:13:48.373Z,17.30
2022-11-03T12:16:34.884Z,17.30
2022-11-03T12:19:57.545Z,17.30
2022-11-03T12:22:24.383Z,17.30
2022-11-03T12:24:53.361Z,17.40
2022-11-03T12:27:26.460Z,17.40
2022-11-03T12:29:58.325Z,17.50
2022-11-03T12:32:33.578Z,17.50
2022-11-03T12:35:08.251Z,17.50
2022-11-03T12:37:35.655Z,17.60
2022-11-03T12:40:02.655Z,17.60
2022-11-03T12:42:29.568Z,17.50
2022-11-03T12:44:56.485Z,17.50
2022-11-03T12:47:23.635Z,17.40
2022-11-03T12:49:50.591Z,17.40
2022-11-03T12:52:17.421Z,17.40
2022-11-03T12:54:44.447Z,17.40
2022-11-03T12:57:11.300Z,17.40
2022-11-03T12:59:38.219Z,17.40
2022-11-03T13:02:05.235Z,17.40
2022-11-03T13:04:32.292Z,17.40
2022-11-03T13:06:59.085Z,17.40
2022-11-03T13:09:26.043Z,17.30
2022-11-03T13:12:11.356Z,17.30
2022-11-03T13:14:38.152Z,17.20
2022-11-03T13:17:05.065Z,17.10
2022-11-03T13:19:31.944Z,17.10
2022-11-03T13:21:58.772Z,17.00
2022-11-03T13:24:25.597Z,16.90
2022-11-03T13:26:52.434Z,16.80
2022-11-03T13:29:19.430Z,16.80
2022-11-03T13:31:46.236Z,16.70
2022-11-03T13:34:13.073Z,16.60
2022-11-03T13:36:39.916Z,16.50
2022-11-03T13:39:06.918Z,16.50
2022-11-03T13:41:33.755Z,16.40
2022-11-03T13:44:00.712Z,16.40
2022-11-03T13:46:27.499Z,16.40
2022-11-03T13:51:41.527Z,16.40
2022-11-03T13:59:42.312Z,16.20
2022-11-03T14:04:57.098Z,16.10
2022-11-03T14:07:24.026Z,16.10
2022-11-03T14:09:50.955Z,16.10
2022-11-03T14:12:32.863Z,16.00
2022-11-03T14:15:01.555Z,16.00
2022-11-03T14:17:28.699Z,15.90
2022-11-03T14:20:00.885Z,15.90
2022-11-03T14:22:31.025Z,15.90
2022-11-03T14:24:57.958Z,15.80
2022-11-03T14:27:25.161Z,15.80
2022-11-03T14:29:52.127Z,15.70
2022-11-03T14:32:20.005Z,15.60
2022-11-03T14:34:47.856Z,15.70
2022-11-03T14:37:15.771Z,15.60
2022-11-03T14:39:42.800Z,15.40
2022-11-03T14:42:16.428Z,15.40
2022-11-03T14:44:45.466Z,15.30
2022-11-03T14:47:15.253Z,15.20
2022-11-03T14:49:42.063Z,15.10
2022-11-03T14:52:09.121Z,15.10
2022-11-03T14:54:36.443Z,15.00
2022-11-03T14:57:04.095Z,14.90
2022-11-03T14:59:31.512Z,14.90
2022-11-03T15:01:59.260Z,14.80
2022-11-03T15:04:26.332Z,14.80
2022-11-03T15:06:53.306Z,14.70
2022-11-03T15:09:20.385Z,14.70
2022-11-03T15:11:47.498Z,14.60
2022-11-03T15:14:14.392Z,14.60
2022-11-03T15:16:41.429Z,14.50
2022-11-03T15:19:08.692Z,14.50
2022-11-03T15:21:35.894Z,14.40
2022-11-03T15:26:49.654Z,14.40
2022-11-03T15:29:16.439Z,14.30
2022-11-03T15:31:47.973Z,14.30
2022-11-03T15:34:16.320Z,14.30
2022-11-03T15:36:43.175Z,14.20
2022-11-03T15:39:10.045Z,14.20
2022-11-03T15:41:36.929Z,14.20
2022-11-03T15:44:03.780Z,14.20
2022-11-03T15:46:30.584Z,14.20
2022-11-03T15:48:57.634Z,14.10
2022-11-03T15:51:25.203Z,14.10
2022-11-03T15:53:57.858Z,14.10
2022-11-03T15:56:26.671Z,14.10
2022-11-03T15:58:53.568Z,14.00
2022-11-03T16:01:20.771Z,14.00
2022-11-03T16:03:47.975Z,14.10
2022-11-03T16:06:14.833Z,14.00
2022-11-03T16:08:41.703Z,14.00
2022-11-03T16:11:09.119Z,14.00
2022-11-03T16:13:36.272Z,14.00
2022-11-03T16:16:03.289Z,14.00
2022-11-03T16:18:30.208Z,14.00
2022-11-03T16:20:57.087Z,14.00
2022-11-03T16:23:24.149Z,14.00
2022-11-03T16:25:50.981Z,14.00
2022-11-03T16:28:17.853Z,14.00
2022-11-03T16:30:48.459Z,14.00
2022-11-03T16:33:18.075Z,14.00
2022-11-03T16:35:45.048Z,14.00
2022-11-03T16:38:13.505Z,14.00
2022-11-03T16:40:40.386Z,14.00
2022-11-03T16:43:07.292Z,14.00
2022-11-03T16:45:37.643Z,14.00
2022-11-03T16:48:07.253Z,14.00
2022-11-03T16:50:35.167Z,14.00
2022-11-03T16:53:02.908Z,13.90
2022-11-03T16:55:29.708Z,13.90
2022-11-03T16:57:57.748Z,13.90
2022-11-03T17:00:24.746Z,13.90
2022-11-03T17:02:51.641Z,13.80
2022-11-03T17:05:20.705Z,13.80
2022-11-03T17:07:53.223Z,13.80
2022-11-03T17:10:21.304Z,13.80
2022-11-03T17:12:48.119Z,13.80
2022-11-03T17:15:15.336Z,13.70
2022-11-03T17:17:42.177Z,13.80
2022-11-03T17:20:10.811Z,13.70
2022-11-03T17:22:38.105Z,13.70
2022-11-03T17:25:06.655Z,13.70
2022-11-03T17:27:42.578Z,13.70
2022-11-03T17:30:24.922Z,13.70
2022-11-03T17:32:55.208Z,13.70
2022-11-03T17:35:25.558Z,13.70
2022-11-03T17:37:53.113Z,13.60
2022-11-03T17:40:23.009Z,13.60
2022-11-03T17:42:50.678Z,13.60
2022-11-03T17:45:22.303Z,13.90
2022-11-03T17:47:49.621Z,13.60
2022-11-03T17:50:21.915Z,13.70
2022-11-03T17:52:50.421Z,13.50
2022-11-03T17:55:35.241Z,13.50
2022-11-03T17:58:04.800Z,13.50
2022-11-03T18:00:31.861Z,13.40
2022-11-03T18:02:58.727Z,13.40
2022-11-03T18:05:31.273Z,13.40
2022-11-03T18:08:00.120Z,13.40
2022-11-03T18:10:30.927Z,13.40
2022-11-03T18:13:16.342Z,13.40
2022-11-03T18:15:49.600Z,13.40
2022-11-03T18:18:21.417Z,13.50
2022-11-03T18:20:53.356Z,13.40
2022-11-03T18:23:26.661Z,13.40
2022-11-03T18:25:54.008Z,13.40
2022-11-03T18:28:21.177Z,13.40
2022-11-03T18:30:51.228Z,13.30
2022-11-03T18:33:25.456Z,13.30
2022-11-03T18:35:53.256Z,13.60
2022-11-03T18:38:23.253Z,13.40
2022-11-03T18:40:50.579Z,13.70
2022-11-03T18:43:20.352Z,13.40
2022-11-03T18:45:48.068Z,13.40
2022-11-03T18:48:19.501Z,13.40
2022-11-03T18:50:52.279Z,13.40
2022-11-03T18:53:22.886Z,13.40
2022-11-03T18:55:50.480Z,13.40
2022-11-03T18:58:20.954Z,13.30
2022-11-03T19:00:48.372Z,13.30
2022-11-03T19:03:20.728Z,13.30
2022-11-03T19:05:49.764Z,13.30
2022-11-03T19:08:34.777Z,13.40
2022-11-03T19:11:03.719Z,13.60
2022-11-03T19:13:34.924Z,13.30
2022-11-03T19:16:07.591Z,13.30
2022-11-03T19:18:35.391Z,13.30
2022-11-03T19:21:13.948Z,13.20
2022-11-03T19:23:43.871Z,13.20
2022-11-03T19:26:20.543Z,13.10
2022-11-03T19:28:50.847Z,13.20
2022-11-03T19:31:30.785Z,13.10
2022-11-03T19:33:58.115Z,13.00
2022-11-03T19:36:26.273Z,13.00
2022-11-03T19:38:53.252Z,12.90
2022-11-03T19:41:38.486Z,12.90
2022-11-03T19:44:11.433Z,12.80
2022-11-03T19:46:40.345Z,12.80
2022-11-03T19:49:11.510Z,12.80
2022-11-03T19:51:39.649Z,12.70
2022-11-03T19:54:15.925Z,12.60
2022-11-03T19:56:44.096Z,12.60
2022-11-03T19:59:12.671Z,12.50
2022-11-03T20:01:39.802Z,12.50
2022-11-03T20:04:07.280Z,12.50
2022-11-03T20:06:36.961Z,12.50
2022-11-03T20:09:07.428Z,12.50
2022-11-03T20:11:35.482Z,12.50
2022-11-03T20:14:03.761Z,12.50
2022-11-03T20:16:31.208Z,12.60
2022-11-03T20:18:58.140Z,12.60
2022-11-03T20:21:28.844Z,12.60
2022-11-03T20:24:00.018Z,12.70
2022-11-03T20:26:28.070Z,12.70
2022-11-03T20:28:56.689Z,12.70
2022-11-03T20:31:23.742Z,12.80
2022-11-03T20:33:51.002Z,12.80
2022-11-03T20:36:20.303Z,12.90
2022-11-03T20:38:59.413Z,12.90
2022-11-03T20:41:30.064Z,13.30
2022-11-03T20:43:57.477Z,13.00
2022-11-03T20:46:26.330Z,13.00
2022-11-03T20:48:55.470Z,13.10
2022-11-03T20:51:25.752Z,13.10
2022-11-03T20:53:53.856Z,13.10
2022-11-03T20:56:24.791Z,13.20
2022-11-03T20:58:52.540Z,13.20
2022-11-03T21:01:33.292Z,13.20
2022-11-03T21:04:01.758Z,13.10
2022-11-03T21:06:31.613Z,13.00
2022-11-03T21:08:59.337Z,13.00
2022-11-03T21:11:29.952Z,12.90
2022-11-03T21:14:04.630Z,12.90
2022-11-03T21:16:50.144Z,12.90
2022-11-03T21:19:45.020Z,12.90
2022-11-03T21:22:50.780Z,13.00
2022-11-03T21:25:19.224Z,13.00
2022-11-03T21:27:46.562Z,13.00
2022-11-03T21:30:15.227Z,13.00
2022-11-03T21:32:42.235Z,13.10
2022-11-03T21:35:19.043Z,13.10
2022-11-03T21:37:45.936Z,13.20
2022-11-03T21:40:13.123Z,13.10
2022-11-03T21:42:58.389Z,13.20
2022-11-03T21:45:25.549Z,13.20
2022-11-03T21:48:14.040Z,13.10
2022-11-03T21:50:41.943Z,13.00
2022-11-03T21:53:09.358Z,12.90
2022-11-03T21:55:36.528Z,12.80
2022-11-03T21:58:03.988Z,12.70
2022-11-03T22:00:32.101Z,12.70
2022-11-03T22:02:59.785Z,12.60
2022-11-03T22:05:26.767Z,12.50
2022-11-03T22:07:53.754Z,12.40
2022-11-03T22:10:20.928Z,12.40
2022-11-03T22:12:47.785Z,12.40
2022-11-03T22:15:33.151Z,12.40
2022-11-03T22:18:01.305Z,12.40
2022-11-03T22:20:46.685Z,12.50
2022-11-03T22:23:34.115Z,12.50
2022-11-03T22:26:20.546Z,12.50
2022-11-03T22:29:07.464Z,12.40
2022-11-03T22:31:40.722Z,12.40
2022-11-03T22:34:26.169Z,12.40
2022-11-03T22:36:53.252Z,12.50
2022-11-03T22:39:38.842Z,12.50
2022-11-03T22:42:24.359Z,12.50
2022-11-03T22:45:09.690Z,12.60
2022-11-03T22:47:36.706Z,12.60
2022-11-03T22:50:03.813Z,12.80
2022-11-03T22:52:30.913Z,12.60
2022-11-03T22:54:57.965Z,12.70
2022-11-03T22:57:24.974Z,12.70
2022-11-03T22:59:51.957Z,12.70
2022-11-03T23:02:18.996Z,12.70
2022-11-03T23:04:46.727Z,12.70
2022-11-03T23:07:13.812Z,12.70
2022-11-03T23:09:41.003Z,12.70
2022-11-03T23:12:07.991Z,12.80
2022-11-03T23:14:53.453Z,12.80
2022-11-03T23:17:40.771Z,12.80
2022-11-03T23:20:44.211Z,12.80
2022-11-03T23:23:31.108Z,12.80
2022-11-03T23:25:58.081Z,12.80
2022-11-03T23:28:25.081Z,12.90
2022-11-03T23:30:51.922Z,12.90
2022-11-03T23:33:18.821Z,12.90
2022-11-03T23:35:45.790Z,12.90
2022-11-03T23:38:12.740Z,13.00
2022-11-03T23:40:39.746Z,13.00
2022-11-03T23:43:06.718Z,13.00
2022-11-03T23:45:54.784Z,13.00
2022-11-03T23:48:40.299Z,13.10
2022-11-03T23:51:07.201Z,13.10
2022-11-03T23:53:34.163Z,13.20
2022-11-03T23:56:19.775Z,13.10
2022-11-03T23:58:51.003Z,13.10
